Bornholm — C4KF2 — position and weather

sailwx.info

Track history (hours):
 
Tides and Currents Weather Stations Pressure Air Temp Water Temp Dewpoint Dewpoint Depression Visibility Wind Speed Wind Dir Waves Ship Positions

Bornholm

Last reported at 2015-Sep-02 10:12 UTC. Time now 2015-Sep-03 13:00 UTC.
Position N 40°48' E 001°11'.

Length 118 m; draft 5 m.

Type: Cargo ship. MMSI: 212521000.

Date/timePositionNaut miles runAvg speedWind from/ knotsBaromVisibWave heightAir tempDewpointWater temp
2015-Sep-02 10:12N 40°48' E 001°11'9 1.1
2015-Sep-02 02:13N 40°40' E 001°07'7 9.4
2015-Sep-02 01:28N 40°33' E 001°06'9 9.4
2015-Sep-02 00:33N 40°24' E 001°04'9 9.3
2015-Sep-01 23:32N 40°15' E 001°02'9 9.4
2015-Sep-01 22:33N 40°06' E 000°60'19 9.4
2015-Sep-01 20:30N 39°47' E 000°55'139 9.3
2015-Sep-01 05:33N 37°42' W 000°23'9 8.9
2015-Sep-01 04:33N 37°35' W 000°30'11 8.8
2015-Sep-01 03:16N 37°27' W 000°40'8 8.9
2015-Sep-01 02:20N 37°21' W 000°48'8 9.3
2015-Sep-01 01:26N 37°16' W 000°55'77 9.5
2015-Aug-31 17:18N 36°24' W 002°07'7 9.5
2015-Aug-31 16:33N 36°22' W 002°15'33 4.7
2015-Aug-31 09:27N 36°21' W 002°57'1112.4
2015-Aug-31 08:34N 36°22' W 002°43'1510.7
2015-Aug-31 07:11N 36°25' W 002°25'710.7
2015-Aug-31 06:32N 36°26' W 002°16'7610.9
2015-Aug-30 23:32N 37°14' W 001°03'1111.2
2015-Aug-30 22:33N 37°21' W 000°52'1111.0
2015-Aug-30 21:34N 37°28' W 000°42'1111.0
2015-Aug-30 20:33N 37°36' W 000°32'1111.0
2015-Aug-30 19:33N 37°44' W 000°22'1110.7
2015-Aug-30 18:31N 37°52' W 000°13'1010.6
2015-Aug-30 17:33N 37°60' W 000°04'12010.9
2015-Aug-30 06:33N 39°27' E 001°43'1110.9
2015-Aug-30 05:34N 39°34' E 001°53'1110.7
2015-Aug-30 04:33N 39°41' E 002°04'1110.5
2015-Aug-30 03:33N 39°47' E 002°15'1010.2
2015-Aug-30 02:34N 39°54' E 002°25'1010.4
2015-Aug-30 01:33N 40°00' E 002°35'1110.7
2015-Aug-30 00:33N 40°07' E 002°46'1110.7
2015-Aug-29 23:34N 40°14' E 002°57'1110.6
2015-Aug-29 22:34N 40°21' E 003°07'1110.7
2015-Aug-29 21:33N 40°28' E 003°18'9910.8
2015-Aug-29 12:20N 41°31' E 004°60'810.7
2015-Aug-29 11:33N 41°36' E 005°08'1110.6
2015-Aug-29 10:34N 41°43' E 005°19'1111.2
2015-Aug-29 09:33N 41°50' E 005°31'6011.5
2015-Aug-29 04:19N 42°29' E 006°33'811.0
2015-Aug-29 03:33N 42°34' E 006°42'1111.1
2015-Aug-29 02:32N 42°41' E 006°54'1111.5
2015-Aug-29 01:33N 42°48' E 007°06'1111.4
2015-Aug-29 00:33N 42°56' E 007°18'1211.2
2015-Aug-28 23:29N 43°03' E 007°31'1111.4
2015-Aug-28 22:29N 43°10' E 007°43'1111.2
2015-Aug-28 21:33N 43°17' E 007°53'1111.0
2015-Aug-28 20:33N 43°24' E 008°05'1111.2
2015-Aug-28 19:33N 43°32' E 008°16'1111.4
2015-Aug-28 18:33N 43°40' E 008°27'1111.0
2015-Aug-28 17:33N 43°49' E 008°36'1110.6
2015-Aug-28 16:33N 43°58' E 008°45'9 8.6
2015-Aug-28 15:33N 44°04' E 008°52'0 0.3
2015-Aug-28 14:33N 44°04' E 008°52'0 0.5
2015-Aug-28 13:33N 44°04' E 008°53'0 0.4
2015-Aug-28 12:33N 44°04' E 008°53'0 0.2
2015-Aug-28 11:33N 44°03' E 008°53'0 0.4
2015-Aug-28 10:33N 44°03' E 008°54'0 0.3
2015-Aug-28 09:33N 44°03' E 008°54'0 0.2
2015-Aug-28 08:33N 44°03' E 008°54'0 0.2
2015-Aug-28 07:33N 44°03' E 008°55'0 0.2
2015-Aug-28 06:33N 44°02' E 008°55'0 0.2
2015-Aug-28 05:33N 44°02' E 008°55'0 0.3
2015-Aug-28 04:33N 44°02' E 008°55'0 0.3
2015-Aug-28 03:33N 44°02' E 008°55'0 0.4
2015-Aug-28 02:33N 44°01' E 008°55'0 0.4
2015-Aug-28 01:33N 44°01' E 008°56'0 0.4
2015-Aug-28 00:33N 44°01' E 008°56'0 0.4
2015-Aug-27 23:33N 44°01' E 008°56'0 0.3
2015-Aug-27 22:33N 44°01' E 008°57'0 0.3
2015-Aug-27 21:33N 44°01' E 008°57'0 0.3
2015-Aug-27 20:33N 44°01' E 008°58'0 0.3
2015-Aug-27 19:33N 44°01' E 008°58'0 0.2
2015-Aug-27 18:33N 44°01' E 008°58'0 0.2
2015-Aug-27 17:33N 44°01' E 008°58'4 3.8
2015-Aug-27 16:33N 44°05' E 008°58'1110.9
2015-Aug-27 15:33N 44°16' E 008°58'9 8.7
2015-Aug-27 14:33N 44°24' E 008°53'0 0.1
2015-Aug-27 13:29N 44°24' E 008°53'0 0.0
2015-Aug-27 12:32N 44°24' E 008°53'0 0.0
2015-Aug-27 11:32N 44°24' E 008°53'0 0.0
2015-Aug-27 10:32N 44°24' E 008°53'0 0.0
2015-Aug-27 09:32N 44°24' E 008°53'0 0.0
2015-Aug-27 08:32N 44°24' E 008°53'0 0.0
2015-Aug-27 07:32N 44°24' E 008°53'0 0.0
2015-Aug-27 06:32N 44°24' E 008°53'0 0.0
2015-Aug-27 05:32N 44°24' E 008°53'0 0.0
2015-Aug-27 04:20N 44°24' E 008°53'0 0.0
2015-Aug-27 03:32N 44°24' E 008°53'0 0.0
2015-Aug-27 02:32N 44°24' E 008°53'0 0.0
2015-Aug-27 01:32N 44°24' E 008°53'0 0.0
2015-Aug-27 00:32N 44°24' E 008°53'0 0.0
2015-Aug-26 23:32N 44°24' E 008°53'0 0.0
2015-Aug-26 22:29N 44°24' E 008°53'0 0.0
2015-Aug-26 21:29N 44°24' E 008°53'0 0.0
2015-Aug-26 20:29N 44°24' E 008°53'0 0.0
2015-Aug-26 19:32N 44°24' E 008°53'0 0.0
2015-Aug-26 18:32N 44°24' E 008°53'0 0.0
2015-Aug-26 17:32N 44°24' E 008°53'2 2.4
2015-Aug-26 16:33N 44°23' E 008°56'7 7.5
2015-Aug-26 15:34N 44°16' E 008°53'1312.5
2015-Aug-26 14:33N 44°08' E 008°40'1312.4
2015-Aug-26 13:33N 43°59' E 008°27'1212.0
2015-Aug-26 12:32N 43°51' E 008°15'1111.7
2015-Aug-26 11:34N 43°43' E 008°03'1211.8
2015-Aug-26 10:34N 43°36' E 007°51'1211.7
2015-Aug-26 09:33N 43°28' E 007°39'1311.8
2015-Aug-26 08:29N 43°20' E 007°25'1111.7
2015-Aug-26 07:33N 43°13' E 007°14'1211.7
2015-Aug-26 06:33N 43°05' E 007°03'1211.8
2015-Aug-26 05:33N 42°57' E 006°51'1412.1
2015-Aug-26 04:24N 42°48' E 006°36'17912.9
2015-Aug-25 14:27N 40°48' E 003°37'1212.7
2015-Aug-25 13:32N 40°40' E 003°26'1212.7
2015-Aug-25 12:33N 40°32' E 003°14'1312.6
2015-Aug-25 11:33N 40°23' E 003°01'1312.6
2015-Aug-25 10:33N 40°15' E 002°49'1212.3
2015-Aug-25 09:34N 40°07' E 002°37'1212.3
2015-Aug-25 08:34N 39°59' E 002°25'1312.4
2015-Aug-25 07:33N 39°50' E 002°13'1212.5
2015-Aug-25 06:33N 39°42' E 002°01'1212.3
2015-Aug-25 05:33N 39°34' E 001°49'1212.2
2015-Aug-25 04:33N 39°26' E 001°37'1212.3
2015-Aug-25 03:33N 39°17' E 001°25'1212.4
2015-Aug-25 02:34N 39°09' E 001°14'2612.8
2015-Aug-25 00:34N 38°52' E 000°49'1312.8
2015-Aug-24 23:34N 38°43' E 000°37'1312.7
2015-Aug-24 22:34N 38°35' E 000°24'1212.4
2015-Aug-24 21:33N 38°32' E 000°09'1312.9
2015-Aug-24 20:33N 38°26' W 000°06'22 0.7
2015-Aug-23 11:27N 38°10' W 000°24'9 8.6
2015-Aug-23 10:25N 38°01' W 000°25'  
Track history (hours):
 
Tides and Currents Weather Stations Pressure Air Temp Water Temp Dewpoint Dewpoint Depression Visibility Wind Speed Wind Dir Waves Ship Positions

Bornholm

Last reported at 2015-Sep-02 10:12 UTC. Time now 2015-Sep-03 13:00 UTC.
Position N 40°48' E 001°11'.

Length 118 m; draft 5 m.

Type: Cargo ship. MMSI: 212521000.

Date/timePositionNaut miles runAvg speedWind from/ knotsBaromVisibWave heightAir tempDewpointWater temp
2015-Sep-02 10:12N 40°48' E 001°11'9 1.1
2015-Sep-02 02:13N 40°40' E 001°07'7 9.4
2015-Sep-02 01:28N 40°33' E 001°06'9 9.4
2015-Sep-02 00:33N 40°24' E 001°04'9 9.3
2015-Sep-01 23:32N 40°15' E 001°02'9 9.4
2015-Sep-01 22:33N 40°06' E 000°60'19 9.4
2015-Sep-01 20:30N 39°47' E 000°55'139 9.3
2015-Sep-01 05:33N 37°42' W 000°23'9 8.9
2015-Sep-01 04:33N 37°35' W 000°30'11 8.8
2015-Sep-01 03:16N 37°27' W 000°40'8 8.9
2015-Sep-01 02:20N 37°21' W 000°48'8 9.3
2015-Sep-01 01:26N 37°16' W 000°55'77 9.5
2015-Aug-31 17:18N 36°24' W 002°07'7 9.5
2015-Aug-31 16:33N 36°22' W 002°15'33 4.7
2015-Aug-31 09:27N 36°21' W 002°57'1112.4
2015-Aug-31 08:34N 36°22' W 002°43'1510.7
2015-Aug-31 07:11N 36°25' W 002°25'710.7
2015-Aug-31 06:32N 36°26' W 002°16'7610.9
2015-Aug-30 23:32N 37°14' W 001°03'1111.2
2015-Aug-30 22:33N 37°21' W 000°52'1111.0
2015-Aug-30 21:34N 37°28' W 000°42'1111.0
2015-Aug-30 20:33N 37°36' W 000°32'1111.0
2015-Aug-30 19:33N 37°44' W 000°22'1110.7
2015-Aug-30 18:31N 37°52' W 000°13'1010.6
2015-Aug-30 17:33N 37°60' W 000°04'12010.9
2015-Aug-30 06:33N 39°27' E 001°43'1110.9
2015-Aug-30 05:34N 39°34' E 001°53'1110.7
2015-Aug-30 04:33N 39°41' E 002°04'1110.5
2015-Aug-30 03:33N 39°47' E 002°15'1010.2
2015-Aug-30 02:34N 39°54' E 002°25'1010.4
2015-Aug-30 01:33N 40°00' E 002°35'1110.7
2015-Aug-30 00:33N 40°07' E 002°46'1110.7
2015-Aug-29 23:34N 40°14' E 002°57'1110.6
2015-Aug-29 22:34N 40°21' E 003°07'1110.7
2015-Aug-29 21:33N 40°28' E 003°18'9910.8
2015-Aug-29 12:20N 41°31' E 004°60'810.7
2015-Aug-29 11:33N 41°36' E 005°08'1110.6
2015-Aug-29 10:34N 41°43' E 005°19'1111.2
2015-Aug-29 09:33N 41°50' E 005°31'6011.5
2015-Aug-29 04:19N 42°29' E 006°33'811.0
2015-Aug-29 03:33N 42°34' E 006°42'1111.1
2015-Aug-29 02:32N 42°41' E 006°54'1111.5
2015-Aug-29 01:33N 42°48' E 007°06'1111.4
2015-Aug-29 00:33N 42°56' E 007°18'1211.2
2015-Aug-28 23:29N 43°03' E 007°31'1111.4
2015-Aug-28 22:29N 43°10' E 007°43'1111.2
2015-Aug-28 21:33N 43°17' E 007°53'1111.0
2015-Aug-28 20:33N 43°24' E 008°05'1111.2
2015-Aug-28 19:33N 43°32' E 008°16'1111.4
2015-Aug-28 18:33N 43°40' E 008°27'1111.0
2015-Aug-28 17:33N 43°49' E 008°36'1110.6
2015-Aug-28 16:33N 43°58' E 008°45'9 8.6
2015-Aug-28 15:33N 44°04' E 008°52'0 0.3
2015-Aug-28 14:33N 44°04' E 008°52'0 0.5
2015-Aug-28 13:33N 44°04' E 008°53'0 0.4
2015-Aug-28 12:33N 44°04' E 008°53'0 0.2
2015-Aug-28 11:33N 44°03' E 008°53'0 0.4
2015-Aug-28 10:33N 44°03' E 008°54'0 0.3
2015-Aug-28 09:33N 44°03' E 008°54'0 0.2
2015-Aug-28 08:33N 44°03' E 008°54'0 0.2
2015-Aug-28 07:33N 44°03' E 008°55'0 0.2
2015-Aug-28 06:33N 44°02' E 008°55'0 0.2
2015-Aug-28 05:33N 44°02' E 008°55'0 0.3
2015-Aug-28 04:33N 44°02' E 008°55'0 0.3
2015-Aug-28 03:33N 44°02' E 008°55'0 0.4
2015-Aug-28 02:33N 44°01' E 008°55'0 0.4
2015-Aug-28 01:33N 44°01' E 008°56'0 0.4
2015-Aug-28 00:33N 44°01' E 008°56'0 0.4
2015-Aug-27 23:33N 44°01' E 008°56'0 0.3
2015-Aug-27 22:33N 44°01' E 008°57'0 0.3
2015-Aug-27 21:33N 44°01' E 008°57'0 0.3
2015-Aug-27 20:33N 44°01' E 008°58'0 0.3
2015-Aug-27 19:33N 44°01' E 008°58'0 0.2
2015-Aug-27 18:33N 44°01' E 008°58'0 0.2
2015-Aug-27 17:33N 44°01' E 008°58'4 3.8
2015-Aug-27 16:33N 44°05' E 008°58'1110.9
2015-Aug-27 15:33N 44°16' E 008°58'9 8.7
2015-Aug-27 14:33N 44°24' E 008°53'0 0.1
2015-Aug-27 13:29N 44°24' E 008°53'0 0.0
2015-Aug-27 12:32N 44°24' E 008°53'0 0.0
2015-Aug-27 11:32N 44°24' E 008°53'0 0.0
2015-Aug-27 10:32N 44°24' E 008°53'0 0.0
2015-Aug-27 09:32N 44°24' E 008°53'0 0.0
2015-Aug-27 08:32N 44°24' E 008°53'0 0.0
2015-Aug-27 07:32N 44°24' E 008°53'0 0.0
2015-Aug-27 06:32N 44°24' E 008°53'0 0.0
2015-Aug-27 05:32N 44°24' E 008°53'0 0.0
2015-Aug-27 04:20N 44°24' E 008°53'0 0.0
2015-Aug-27 03:32N 44°24' E 008°53'0 0.0
2015-Aug-27 02:32N 44°24' E 008°53'0 0.0
2015-Aug-27 01:32N 44°24' E 008°53'0 0.0
2015-Aug-27 00:32N 44°24' E 008°53'0 0.0
2015-Aug-26 23:32N 44°24' E 008°53'0 0.0
2015-Aug-26 22:29N 44°24' E 008°53'0 0.0
2015-Aug-26 21:29N 44°24' E 008°53'0 0.0
2015-Aug-26 20:29N 44°24' E 008°53'0 0.0
2015-Aug-26 19:32N 44°24' E 008°53'0 0.0
2015-Aug-26 18:32N 44°24' E 008°53'0 0.0
2015-Aug-26 17:32N 44°24' E 008°53'2 2.4
2015-Aug-26 16:33N 44°23' E 008°56'7 7.5
2015-Aug-26 15:34N 44°16' E 008°53'1312.5
2015-Aug-26 14:33N 44°08' E 008°40'1312.4
2015-Aug-26 13:33N 43°59' E 008°27'1212.0
2015-Aug-26 12:32N 43°51' E 008°15'1111.7
2015-Aug-26 11:34N 43°43' E 008°03'1211.8
2015-Aug-26 10:34N 43°36' E 007°51'1211.7
2015-Aug-26 09:33N 43°28' E 007°39'1311.8
2015-Aug-26 08:29N 43°20' E 007°25'1111.7
2015-Aug-26 07:33N 43°13' E 007°14'1211.7
2015-Aug-26 06:33N 43°05' E 007°03'1211.8
2015-Aug-26 05:33N 42°57' E 006°51'1412.1
2015-Aug-26 04:24N 42°48' E 006°36'17912.9
2015-Aug-25 14:27N 40°48' E 003°37'1212.7
2015-Aug-25 13:32N 40°40' E 003°26'1212.7
2015-Aug-25 12:33N 40°32' E 003°14'1312.6
2015-Aug-25 11:33N 40°23' E 003°01'1312.6
2015-Aug-25 10:33N 40°15' E 002°49'1212.3
2015-Aug-25 09:34N 40°07' E 002°37'1212.3
2015-Aug-25 08:34N 39°59' E 002°25'1312.4
2015-Aug-25 07:33N 39°50' E 002°13'1212.5
2015-Aug-25 06:33N 39°42' E 002°01'1212.3
2015-Aug-25 05:33N 39°34' E 001°49'1212.2
2015-Aug-25 04:33N 39°26' E 001°37'1212.3
2015-Aug-25 03:33N 39°17' E 001°25'1212.4
2015-Aug-25 02:34N 39°09' E 001°14'2612.8
2015-Aug-25 00:34N 38°52' E 000°49'1312.8
2015-Aug-24 23:34N 38°43' E 000°37'1312.7
2015-Aug-24 22:34N 38°35' E 000°24'1212.4
2015-Aug-24 21:33N 38°32' E 000°09'1312.9
2015-Aug-24 20:33N 38°26' W 000°06'22 0.7
2015-Aug-23 11:27N 38°10' W 000°24'9 8.6
2015-Aug-23 10:25N 38°01' W 000°25'  

Dump ship's entire track history